Time;durP1;ratioP1;P1;durP2;ratioP2;P2;SDS_P1;SDS_P2;PMS_P1;PMS_P2;Temp;Humidity;BMP_temperature;BMP_pressure;BME280_temperature;BME280_humidity;BME280_pressure;Samples;Min_cycle;Max_cycle;Signal;HPM_P1;HPM_P2
2022/11/18 00:01:17;;;;;;;30.55;20.33;;;;;;;10.37;100.00;99182.09;4955441;28;20053;-85
2022/11/18 00:03:44;;;;;;;28.48;19.90;;;;;;;10.42;100.00;99169.34;4945942;28;20336;-84
2022/11/18 00:06:14;;;;;;;27.55;20.27;;;;;;;10.45;100.00;99169.00;4951951;28;20027;-84
2022/11/18 00:08:40;;;;;;;22.48;18.13;;;;;;;10.50;100.00;99163.25;4976326;28;20378;-85
2022/11/18 00:14:17;;;;;;;27.85;18.25;;;;;;;10.48;100.00;99153.03;4955716;28;20360;-84
2022/11/18 00:14:18;;;;;;;27.30;18.45;;;;;;;10.48;100.00;99153.03;4948627;28;20043;-84
2022/11/18 00:17:00;;;;;;;26.30;17.98;;;;;;;10.49;100.00;99144.22;4946233;28;20418;-84
2022/11/18 00:19:33;;;;;;;27.77;17.77;;;;;;;10.52;100.00;99150.88;4952190;28;20027;-84
2022/11/18 00:21:59;;;;;;;24.17;17.45;;;;;;;10.57;100.00;99140.75;4957482;28;20504;-85
2022/11/18 00:24:25;;;;;;;28.27;20.25;;;;;;;10.58;100.00;99135.34;4957464;28;20082;-84
2022/11/18 00:26:51;;;;;;;28.42;19.50;;;;;;;10.59;100.00;99133.56;4955692;28;20039;-84
2022/11/18 00:29:16;;;;;;;28.48;20.67;;;;;;;10.57;100.00;99119.91;4958504;28;20471;-84
2022/11/18 00:31:42;;;;;;;28.20;19.05;;;;;;;10.52;100.00;99106.59;4953662;28;20046;-84
2022/11/18 00:34:11;;;;;;;28.42;19.23;;;;;;;10.51;100.00;99105.00;4962417;28;20513;-84
2022/11/18 00:36:37;;;;;;;26.50;19.08;;;;;;;10.51;100.00;99099.78;4965962;28;20033;-84
2022/11/18 00:39:03;;;;;;;30.23;21.35;;;;;;;10.50;100.00;99093.75;4957191;28;20404;-84
2022/11/18 00:42:49;;;;;;;27.50;20.55;;;;;;;10.47;100.00;99086.31;4954069;28;20446;-84
2022/11/18 00:44:14;;;;;;;25.13;18.48;;;;;;;10.48;100.00;99087.13;4949038;28;20047;-84
2022/11/18 00:46:39;;;;;;;26.67;19.08;;;;;;;10.47;100.00;99086.31;4945995;28;20031;-84
2022/11/18 00:49:05;;;;;;;21.63;17.48;;;;;;;10.47;100.00;99106.31;4954428;28;20482;-84
2022/11/18 00:51:30;;;;;;;24.20;17.92;;;;;;;10.48;100.00;99111.34;4951348;28;20046;-84
2022/11/18 00:53:56;;;;;;;23.58;17.52;;;;;;;10.49;100.00;99117.38;4953973;28;20031;-84
2022/11/18 00:56:21;;;;;;;25.55;18.20;;;;;;;10.49;100.00;99112.97;4952311;28;20031;-84
2022/11/18 00:58:46;;;;;;;26.35;18.40;;;;;;;10.47;100.00;99109.75;4956109;28;20050;-85
2022/11/18 01:01:12;;;;;;;22.67;14.68;;;;;;;10.43;100.00;99103.25;4960655;28;20027;-85
2022/11/18 01:03:37;;;;;;;16.25;10.77;;;;;;;10.53;100.00;99084.78;4954654;28;20035;-84
2022/11/18 01:06:03;;;;;;;13.70;10.40;;;;;;;10.61;100.00;99082.09;4958080;28;20034;-84
2022/11/18 01:08:28;;;;;;;14.38;10.63;;;;;;;10.65;100.00;99091.19;4946667;28;20055;-84
2022/11/18 01:10:53;;;;;;;16.63;10.10;;;;;;;10.71;100.00;99094.88;4951994;28;20446;-84
2022/11/18 01:13:22;;;;;;;16.88;10.25;;;;;;;10.74;100.00;99091.91;4954834;28;20465;-84
2022/11/18 01:15:53;;;;;;;17.75;9.65;;;;;;;10.75;100.00;99094.34;4950547;28;20394;-85
2022/11/18 01:18:28;;;;;;;12.68;8.32;;;;;;;10.80;100.00;99088.59;4957564;28;20352;-85
2022/11/18 01:20:59;;;;;;;16.33;8.98;;;;;;;10.78;100.00;99086.16;4958644;28;20395;-85
2022/11/18 01:23:25;;;;;;;20.55;12.52;;;;;;;10.74;100.00;99076.28;4956784;28;20058;-85
2022/11/18 01:25:50;;;;;;;17.63;12.05;;;;;;;10.66;100.00;99077.19;4952700;28;20450;-84
2022/11/18 01:28:17;;;;;;;15.73;10.30;;;;;;;10.65;100.00;99075.56;4957389;28;20032;-85
2022/11/18 01:30:43;;;;;;;15.90;10.93;;;;;;;10.69;100.00;99076.81;4956225;28;20031;-85
2022/11/18 01:33:08;;;;;;;12.35;9.52;;;;;;;10.71;100.00;99074.03;4955128;28;20038;-84
2022/11/18 01:35:38;;;;;;;13.98;10.25;;;;;;;10.73;100.00;99061.66;4952022;28;20031;-85
2022/11/18 01:38:04;;;;;;;16.10;11.15;;;;;;;10.74;100.00;99063.25;4950902;28;20035;-85
2022/11/18 01:40:30;;;;;;;13.88;10.02;;;;;;;10.71;100.00;99059.22;4954069;28;20406;-85
2022/11/18 01:42:56;;;;;;;11.07;7.60;;;;;;;10.70;100.00;99046.38;4950477;28;20038;-85
2022/11/18 01:45:36;;;;;;;12.07;8.57;;;;;;;10.76;100.00;99036.03;4948017;28;20046;-84
2022/11/18 01:48:05;;;;;;;13.05;7.78;;;;;;;10.85;100.00;99032.38;4954242;28;20039;-85
2022/11/18 01:50:33;;;;;;;11.60;8.75;;;;;;;10.86;100.00;99020.94;4951046;28;20041;-85
2022/11/18 01:53:05;;;;;;;11.95;8.73;;;;;;;10.84;100.00;99027.34;4954193;28;20066;-84
2022/11/18 01:55:34;;;;;;;16.58;7.65;;;;;;;10.85;100.00;99028.94;4953383;28;20072;-84
2022/11/18 01:58:11;;;;;;;11.88;8.20;;;;;;;10.85;100.00;99018.53;4951177;28;20046;-84
2022/11/18 02:00:37;;;;;;;9.48;7.45;;;;;;;10.87;100.00;99006.91;4952602;28;20047;-85
2022/11/18 02:03:03;;;;;;;10.57;7.85;;;;;;;10.86;100.00;99000.09;4960380;28;20034;-85
2022/11/18 02:05:30;;;;;;;11.77;7.78;;;;;;;10.88;100.00;99000.69;4954520;28;20043;-85
2022/11/18 02:07:56;;;;;;;10.05;6.60;;;;;;;10.90;100.00;99001.34;4949681;28;20037;-84
2022/11/18 02:10:23;;;;;;;9.13;6.72;;;;;;;10.90;100.00;99001.34;4962508;28;20054;-85
2022/11/18 02:12:51;;;;;;;8.40;6.88;;;;;;;10.94;100.00;99005.19;4961886;28;20546;-84
2022/11/18 02:15:26;;;;;;;7.63;5.93;;;;;;;10.96;100.00;99000.59;4953882;28;20047;-85
2022/11/18 02:18:10;;;;;;;10.27;6.15;;;;;;;10.99;100.00;98989.00;4951430;28;20035;-84
2022/11/18 02:20:39;;;;;;;8.18;6.00;;;;;;;10.98;100.00;98980.38;4950159;28;20036;-85
2022/11/18 02:23:20;;;;;;;8.30;5.72;;;;;;;11.00;100.00;98979.41;4959657;28;20123;-85
2022/11/18 02:25:54;;;;;;;13.27;6.70;;;;;;;10.93;100.00;98982.72;4956471;28;20039;-85
2022/11/18 02:28:34;;;;;;;10.13;6.72;;;;;;;10.85;100.00;98975.03;4958978;28;20137;-85
2022/11/18 02:31:14;;;;;;;8.43;6.43;;;;;;;10.87;100.00;98969.66;4958315;28;20089;-85
2022/11/18 02:33:54;;;;;;;12.20;6.47;;;;;;;10.87;100.00;98960.00;4952965;28;20411;-84
2022/11/18 02:36:52;;;;;;;10.10;6.60;;;;;;;10.94;100.00;98953.06;4954186;28;20022;-84
2022/11/18 02:39:35;;;;;;;11.00;6.22;;;;;;;10.93;100.00;98954.06;4932160;28;20127;-84
2022/11/18 02:42:08;;;;;;;9.15;6.30;;;;;;;10.97;100.00;98951.91;4953110;28;20042;-84
2022/11/18 02:44:36;;;;;;;8.90;5.35;;;;;;;10.99;100.00;98957.75;4946300;28;20023;-84
2022/11/18 02:47:05;;;;;;;8.07;5.70;;;;;;;10.98;100.00;98962.16;4960363;28;20042;-85
2022/11/18 02:49:37;;;;;;;9.25;5.55;;;;;;;10.96;100.00;98953.69;4959403;28;20070;-84
2022/11/18 02:52:05;;;;;;;9.10;6.18;;;;;;;10.93;100.00;98959.28;4958652;28;20036;-84
2022/11/18 02:54:33;;;;;;;8.80;5.50;;;;;;;10.95;100.00;98946.06;4953905;28;20039;-84
2022/11/18 02:56:59;;;;;;;8.82;6.03;;;;;;;10.94;100.00;98945.25;4958485;28;20035;-84
2022/11/18 02:59:27;;;;;;;5.93;4.88;;;;;;;10.93;100.00;98941.03;4957001;28;20081;-84
2022/11/18 03:01:53;;;;;;;8.93;6.00;;;;;;;10.91;100.00;98939.59;4955272;28;20112;-83
2022/11/18 03:04:20;;;;;;;9.40;5.97;;;;;;;10.91;100.00;98939.59;4953633;28;20435;-84
2022/11/18 03:06:58;;;;;;;7.72;5.65;;;;;;;10.93;100.00;98948.03;4956807;28;20323;-84
2022/11/18 03:09:30;;;;;;;13.43;6.22;;;;;;;10.93;100.00;98937.63;4952177;28;20031;-84
2022/11/18 03:12:04;;;;;;;7.72;5.55;;;;;;;10.92;100.00;98938.63;4952699;28;20447;-84
2022/11/18 03:15:01;;;;;;;7.90;5.93;;;;;;;10.86;100.00;98929.75;4951962;28;20979;-84
2022/11/18 03:17:59;;;;;;;11.73;6.10;;;;;;;10.84;100.00;98926.53;4958433;28;20027;-84
2022/11/18 03:20:30;;;;;;;12.55;6.50;;;;;;;10.84;100.00;98923.91;4952018;28;20504;-84
2022/11/18 03:23:19;;;;;;;9.15;6.63;;;;;;;10.82;100.00;98925.91;4955155;28;20034;-84
2022/11/18 03:26:06;;;;;;;7.95;6.70;;;;;;;10.82;100.00;98925.91;4945506;28;20027;-84
2022/11/18 03:28:43;;;;;;;9.45;6.43;;;;;;;10.83;100.00;98922.31;4958068;28;20027;-84
2022/11/18 03:31:21;;;;;;;7.80;5.85;;;;;;;10.82;100.00;98928.50;4956143;28;20102;-84
2022/11/18 03:33:53;;;;;;;8.52;6.88;;;;;;;10.81;100.00;98933.91;4947567;28;20032;-83
2022/11/18 03:36:23;;;;;;;11.63;7.18;;;;;;;10.81;100.00;98941.72;4952896;28;20090;-84
2022/11/18 03:38:53;;;;;;;10.13;7.45;;;;;;;10.82;100.00;98938.94;4953419;28;20028;-84
2022/11/18 03:41:20;;;;;;;12.05;7.88;;;;;;;10.82;100.00;98941.53;4951420;28;20037;-85
2022/11/18 03:43:52;;;;;;;10.25;6.40;;;;;;;10.84;100.00;98925.72;4952862;28;20037;-84
2022/11/18 03:46:27;;;;;;;10.55;6.05;;;;;;;10.84;100.00;98930.94;4952896;28;20031;-84
2022/11/18 03:48:55;;;;;;;9.98;6.25;;;;;;;10.84;100.00;98913.50;4950285;28;20023;-84
2022/11/18 03:51:25;;;;;;;10.63;6.45;;;;;;;10.79;100.00;98896.81;4952651;28;20031;-84
2022/11/18 03:54:02;;;;;;;11.52;6.13;;;;;;;10.70;100.00;98893.50;4954419;28;20042;-84
2022/11/18 03:56:33;;;;;;;10.10;6.50;;;;;;;10.67;100.00;98886.03;4959508;28;20027;-84
2022/11/18 03:59:01;;;;;;;9.95;6.63;;;;;;;10.64;100.00;98882.00;4953926;28;20051;-84
2022/11/18 04:01:39;;;;;;;8.82;6.07;;;;;;;10.62;100.00;98885.78;4959362;28;20065;-84
2022/11/18 04:04:06;;;;;;;10.27;6.38;;;;;;;10.62;100.00;98880.56;4955892;28;20042;-84
2022/11/18 04:07:19;;;;;;;11.20;7.40;;;;;;;10.60;100.00;98861.72;4952530;28;20031;-84
2022/11/18 04:09:51;;;;;;;16.05;8.55;;;;;;;10.58;100.00;98850.69;4954704;28;20457;-84
2022/11/18 04:12:20;;;;;;;12.52;9.00;;;;;;;10.56;100.00;98850.06;4952297;28;20057;-85
2022/11/18 04:14:51;;;;;;;11.82;7.55;;;;;;;10.56;100.00;98852.66;4956377;28;20505;-84
2022/11/18 04:17:20;;;;;;;20.08;7.93;;;;;;;10.55;100.00;98851.03;4955894;28;20133;-84
2022/11/18 04:19:46;;;;;;;13.30;9.20;;;;;;;10.53;100.00;98853.03;4951620;28;20035;-85
2022/11/18 04:22:12;;;;;;;11.02;8.05;;;;;;;10.54;100.00;98852.03;4949765;28;20043;-85
2022/11/18 04:24:38;;;;;;;10.95;7.50;;;;;;;10.55;100.00;98840.63;4956011;28;20143;-85
2022/11/18 04:27:04;;;;;;;9.63;7.95;;;;;;;10.54;100.00;98834.63;4957895;28;20066;-84
2022/11/18 04:29:30;;;;;;;9.48;6.28;;;;;;;10.54;100.00;98828.59;4950618;28;20035;-84
2022/11/18 04:31:56;;;;;;;12.80;6.90;;;;;;;10.53;100.00;98830.38;4958179;28;20039;-84
2022/11/18 04:34:21;;;;;;;9.80;6.40;;;;;;;10.49;100.00;98826.53;4955491;28;20089;-85
2022/11/18 04:36:47;;;;;;;11.70;6.93;;;;;;;10.42;100.00;98817.03;4953855;28;20055;-84
2022/11/18 04:39:13;;;;;;;9.48;6.47;;;;;;;10.37;100.00;98806.41;4965397;28;20683;-84
2022/11/18 04:41:57;;;;;;;10.05;6.22;;;;;;;10.35;100.00;98808.38;4959425;28;20043;-84
2022/11/18 04:44:32;;;;;;;10.75;6.22;;;;;;;10.34;100.00;98806.75;4952104;28;20035;-84
2022/11/18 04:46:59;;;;;;;;;;;;;;;10.34;100.00;98812.78;4962382;28;20124;-84
2022/11/18 04:49:25;;;;;;;10.27;5.38;;;;;;;10.35;100.00;98817.00;4955807;28;19918;-84
2022/11/18 04:51:51;;;;;;;5.68;5.07;;;;;;;10.35;100.00;98831.81;4953732;28;20130;-84
2022/11/18 04:54:18;;;;;;;5.88;5.00;;;;;;;10.31;100.00;98839.16;4951200;28;20122;-84
2022/11/18 04:56:44;;;;;;;8.32;5.65;;;;;;;10.26;100.00;98842.31;4952968;28;20039;-84
2022/11/18 04:59:11;;;;;;;8.35;5.85;;;;;;;10.25;100.00;98845.91;4957441;28;20138;-85
2022/11/18 05:01:37;;;;;;;8.98;5.93;;;;;;;10.23;100.00;98832.25;4954980;28;20024;-84
2022/11/18 05:04:04;;;;;;;8.50;5.63;;;;;;;10.20;100.00;98832.63;4954753;28;20031;-85
2022/11/18 05:06:30;;;;;;;7.53;6.45;;;;;;;10.17;100.00;98843.38;4955042;28;20067;-84
2022/11/18 05:08:57;;;;;;;14.55;6.30;;;;;;;10.16;100.00;98846.94;4949845;28;20031;-84
2022/11/18 05:14:07;;;;;;;12.43;6.65;;;;;;;10.19;100.00;98856.19;4948525;28;20071;-84
2022/11/18 05:16:33;;;;;;;11.52;7.78;;;;;;;10.25;100.00;98856.31;4959410;28;20047;-84
2022/11/18 05:19:00;;;;;;;8.80;6.38;;;;;;;10.29;100.00;98857.56;4956460;28;20051;-84
2022/11/18 05:21:25;;;;;;;15.23;7.93;;;;;;;10.28;100.00;98855.94;4951758;28;20037;-85
2022/11/18 05:23:51;;;;;;;9.95;7.88;;;;;;;10.29;100.00;98862.78;4946689;28;20032;-84
2022/11/18 05:26:16;;;;;;;12.20;8.13;;;;;;;10.30;100.00;98864.38;4955922;28;20129;-84
2022/11/18 05:28:41;;;;;;;10.57;7.45;;;;;;;10.33;100.00;98868.44;4956067;28;20031;-84
2022/11/18 05:31:12;;;;;;;17.80;8.00;;;;;;;10.33;100.00;98878.84;4948957;28;20058;-84
2022/11/18 05:33:38;;;;;;;11.80;7.63;;;;;;;10.31;100.00;98875.59;4943394;28;20066;-85
2022/11/18 05:36:15;;;;;;;11.00;7.55;;;;;;;10.32;100.00;98881.63;4949714;28;20035;-83
2022/11/18 05:38:41;;;;;;;11.73;8.05;;;;;;;10.33;100.00;98875.44;4953883;28;20483;-84
2022/11/18 05:41:07;;;;;;;10.35;7.28;;;;;;;10.35;100.00;98873.44;4956526;28;20133;-84
2022/11/18 05:43:33;;;;;;;11.50;7.43;;;;;;;10.38;100.00;98876.50;4958576;28;20114;-84
2022/11/18 05:45:59;;;;;;;9.23;6.88;;;;;;;10.41;100.00;98876.09;4952028;28;20039;-84
2022/11/18 05:48:25;;;;;;;12.80;7.40;;;;;;;10.43;100.00;98874.13;4952136;28;20423;-84
2022/11/18 05:50:52;;;;;;;15.05;7.50;;;;;;;10.44;100.00;98864.53;4969508;28;20055;-85
2022/11/18 05:53:22;;;;;;;9.50;6.95;;;;;;;10.46;100.00;98860.75;4959848;28;20045;-84
2022/11/18 05:56:02;;;;;;;8.60;7.38;;;;;;;10.44;100.00;98854.13;4955433;28;20031;-84
2022/11/18 05:58:28;;;;;;;12.82;6.97;;;;;;;10.46;100.00;98852.13;4956847;28;20038;-83
2022/11/18 06:00:59;;;;;;;11.75;6.78;;;;;;;10.50;100.00;98858.59;4962964;28;20450;-84
2022/11/18 06:03:28;;;;;;;12.18;6.75;;;;;;;10.55;100.00;98851.03;4956092;28;20038;-83
2022/11/18 06:05:55;;;;;;;9.73;6.35;;;;;;;10.57;100.00;98865.50;4954316;28;20042;-84
2022/11/18 06:08:25;;;;;;;10.60;6.85;;;;;;;10.58;100.00;98858.50;4961847;28;20039;-84
2022/11/18 06:10:52;;;;;;;10.13;6.68;;;;;;;10.57;100.00;98862.88;4966461;28;20030;-83
2022/11/18 06:13:28;;;;;;;11.57;6.70;;;;;;;10.57;100.00;98859.47;4959417;28;20039;-84
2022/11/18 06:15:54;;;;;;;9.93;6.43;;;;;;;10.56;100.00;98863.06;4964505;28;20431;-84
2022/11/18 06:18:22;;;;;;;11.63;6.90;;;;;;;10.56;100.00;98853.47;4955081;28;20050;-84
2022/11/18 06:20:51;;;;;;;10.27;8.40;;;;;;;10.57;100.00;98864.69;4964496;28;20085;-84
2022/11/18 06:23:17;;;;;;;13.88;7.85;;;;;;;10.58;100.00;98861.09;4954117;28;20058;-84
2022/11/18 06:25:43;;;;;;;11.40;7.20;;;;;;;10.59;100.00;98868.72;4960436;28;20061;-84
2022/11/18 06:28:11;;;;;;;13.52;8.50;;;;;;;10.58;100.00;98863.69;4968076;28;20530;-84
2022/11/18 06:30:37;;;;;;;17.42;8.10;;;;;;;10.59;100.00;98865.31;4944939;29;20435;-84
2022/11/18 06:33:03;;;;;;;12.25;7.85;;;;;;;10.57;100.00;98862.88;4947322;29;20090;-84
2022/11/18 06:35:28;;;;;;;10.18;6.63;;;;;;;10.62;100.00;98859.75;4939059;29;20039;-84
2022/11/18 06:37:53;;;;;;;10.07;6.30;;;;;;;10.66;100.00;98863.59;4945861;29;20426;-84
2022/11/18 06:40:19;;;;;;;9.15;5.78;;;;;;;10.66;100.00;98858.38;4937438;29;21046;-84
2022/11/18 06:45:28;;;;;;;9.45;6.57;;;;;;;10.65;100.00;98854.16;4944544;29;20133;-84
2022/11/18 06:47:59;;;;;;;12.90;6.20;;;;;;;10.63;100.00;98843.13;4945127;29;20118;-84
2022/11/18 06:50:25;;;;;;;8.65;6.45;;;;;;;10.64;100.00;98840.34;4936020;28;20468;-84
2022/11/18 06:52:51;;;;;;;9.70;6.38;;;;;;;10.66;100.00;98853.19;4941970;29;20059;-84
2022/11/18 06:55:16;;;;;;;10.00;6.57;;;;;;;10.69;100.00;98854.59;4935682;28;20031;-84
2022/11/18 06:57:42;;;;;;;7.75;5.70;;;;;;;10.71;100.00;98861.25;4938524;29;20098;-83
2022/11/18 07:00:08;;;;;;;9.90;5.97;;;;;;;10.72;100.00;98859.44;4936743;29;20047;-83
2022/11/18 07:02:36;;;;;;;8.60;5.97;;;;;;;10.73;100.00;98859.25;4935672;29;20111;-84
2022/11/18 07:05:03;;;;;;;7.38;5.75;;;;;;;10.74;100.00;98855.66;4933844;29;20036;-83
2022/11/18 07:07:29;;;;;;;8.85;5.35;;;;;;;10.75;100.00;98846.88;4934049;28;20118;-83
2022/11/18 07:09:54;;;;;;;8.60;5.65;;;;;;;10.77;100.00;98849.28;4932800;29;20559;-84
2022/11/18 07:12:20;;;;;;;7.38;5.68;;;;;;;10.78;100.00;98845.69;4936166;28;20396;-83
2022/11/18 07:14:45;;;;;;;5.00;4.50;;;;;;;10.80;100.00;98848.91;4936031;29;20035;-84
2022/11/18 07:17:11;;;;;;;9.25;4.93;;;;;;;10.82;100.00;98849.53;4943182;29;20102;-83
2022/11/18 07:19:38;;;;;;;6.13;4.45;;;;;;;10.86;100.00;98843.78;4939778;29;20559;-83
2022/11/18 07:22:04;;;;;;;6.32;3.80;;;;;;;10.94;100.00;98848.84;4936451;29;20079;-83
2022/11/18 07:24:30;;;;;;;5.47;3.30;;;;;;;11.01;100.00;98853.31;4944151;29;20043;-83
2022/11/18 07:26:55;;;;;;;4.70;2.78;;;;;;;11.04;100.00;98850.34;4938928;29;20118;-83
2022/11/18 07:29:21;;;;;;;5.68;2.88;;;;;;;11.08;100.00;98860.22;4937557;29;20115;-83
2022/11/18 07:31:46;;;;;;;7.38;3.40;;;;;;;11.13;100.00;98851.81;4940714;28;20035;-83
2022/11/18 07:34:12;;;;;;;4.82;3.40;;;;;;;11.13;100.00;98859.66;4936120;29;20360;-84
2022/11/18 07:36:38;;;;;;;4.57;3.60;;;;;;;11.14;100.00;98872.50;4939116;29;20071;-84
2022/11/18 07:39:05;;;;;;;4.43;3.05;;;;;;;11.14;100.00;98872.50;4938486;29;20082;-83
2022/11/18 07:41:32;;;;;;;6.00;3.30;;;;;;;11.15;100.00;98868.09;4933737;28;20048;-83
2022/11/18 07:44:00;;;;;;;5.10;3.95;;;;;;;11.14;100.00;98876.91;4937006;29;20084;-83
2022/11/18 07:46:33;;;;;;;9.00;5.28;;;;;;;11.13;100.00;98880.50;4939567;28;20065;-84
2022/11/18 07:49:01;;;;;;;7.50;4.70;;;;;;;11.08;100.00;98880.25;4929325;29;20513;-84
2022/11/18 07:51:29;;;;;;;7.60;4.97;;;;;;;11.05;100.00;98884.03;4937501;29;20044;-84
2022/11/18 07:53:55;;;;;;;9.38;4.43;;;;;;;11.05;100.00;98878.00;4941434;28;20047;-84
2022/11/18 07:56:21;;;;;;;9.70;4.78;;;;;;;11.04;100.00;98869.38;4929750;29;20024;-84
2022/11/18 07:58:47;;;;;;;7.90;4.65;;;;;;;11.06;100.00;98870.00;4936783;29;20054;-84
2022/11/18 08:01:15;;;;;;;7.47;3.83;;;;;;;11.12;100.00;98884.09;4942157;28;20031;-84
2022/11/18 08:03:41;;;;;;;9.18;4.00;;;;;;;11.15;100.00;98879.31;4938502;29;20043;-84
2022/11/18 08:06:09;;;;;;;7.85;5.00;;;;;;;11.15;100.00;98884.53;4948610;28;20031;-84
2022/11/18 08:08:35;;;;;;;10.85;6.22;;;;;;;11.18;100.00;98878.16;4940425;29;20337;-83
2022/11/18 08:11:02;;;;;;;11.75;7.28;;;;;;;11.23;100.00;98873.19;4934803;29;20019;-83
2022/11/18 08:13:28;;;;;;;4.95;3.28;;;;;;;11.27;100.00;98874.41;4935591;29;20040;-83
2022/11/18 08:15:55;;;;;;;4.72;2.85;;;;;;;11.30;100.00;98874.84;4936429;29;20489;-83
2022/11/18 08:18:21;;;;;;;5.63;2.80;;;;;;;11.36;100.00;98880.28;4947968;28;20039;-83
2022/11/18 08:20:47;;;;;;;8.18;4.68;;;;;;;11.39;100.00;98875.50;4932315;29;20551;-84
2022/11/18 08:23:14;;;;;;;4.72;3.50;;;;;;;11.43;100.00;98879.34;4931754;29;20047;-83
2022/11/18 08:25:41;;;;;;;8.27;3.95;;;;;;;11.45;100.00;98879.97;4933510;29;20031;-83
2022/11/18 08:28:07;;;;;;;3.78;3.25;;;;;;;11.45;100.00;98873.94;4937516;28;20592;-84
2022/11/18 08:30:33;;;;;;;4.57;2.85;;;;;;;11.43;100.00;98874.13;4933218;29;20081;-84
2022/11/18 08:32:59;;;;;;;3.72;2.83;;;;;;;11.44;100.00;98869.72;4932442;29;20082;-83
2022/11/18 08:35:26;;;;;;;6.10;4.03;;;;;;;11.45;100.00;98866.13;4934493;28;20417;-86
2022/11/18 08:37:51;;;;;;;9.25;4.47;;;;;;;11.47;100.00;98870.16;4936226;29;20035;-86
2022/11/18 08:40:17;;;;;;;6.45;4.55;;;;;;;11.53;100.00;98866.78;4936091;29;20379;-85
2022/11/18 08:42:42;;;;;;;7.15;5.13;;;;;;;11.64;100.00;98862.88;4935782;29;20439;-87
2022/11/18 08:45:08;;;;;;;8.38;3.92;;;;;;;11.71;100.00;98860.31;4932372;29;20070;-87
2022/11/18 08:47:35;;;;;;;9.32;3.45;;;;;;;11.81;100.00;98861.63;4938427;29;20079;-86
2022/11/18 08:50:02;;;;;;;5.78;3.30;;;;;;;11.93;100.00;98856.66;4941280;28;20451;-86
2022/11/18 08:52:28;;;;;;;4.50;3.42;;;;;;;11.98;100.00;98856.88;4941081;28;20465;-85
2022/11/18 08:54:53;;;;;;;4.78;2.22;;;;;;;12.07;100.00;98852.31;4939600;29;20032;-87
2022/11/18 08:57:19;;;;;;;5.00;2.67;;;;;;;12.14;100.00;98848.75;4937268;29;20051;-85
2022/11/18 08:59:44;;;;;;;3.65;2.33;;;;;;;12.16;100.00;98853.78;4935303;28;20559;-84
2022/11/18 09:02:19;;;;;;;4.63;2.55;;;;;;;12.19;100.00;98856.00;4939885;28;20086;-84
2022/11/18 09:04:52;;;;;;;4.68;2.72;;;;;;;12.22;100.00;98853.81;4928781;29;20031;-84
2022/11/18 09:07:18;;;;;;;3.25;2.17;;;;;;;12.27;100.00;98855.84;4919566;29;20091;-84
2022/11/18 09:09:44;;;;;;;3.53;1.95;;;;;;;12.27;100.00;98859.25;4940326;29;20094;-84
2022/11/18 09:12:13;;;;;;;3.83;2.13;;;;;;;12.30;100.00;98858.03;4936651;28;20423;-85
2022/11/18 09:14:41;;;;;;;4.55;2.47;;;;;;;12.29;100.00;98861.66;4930660;29;20039;-85
2022/11/18 09:17:07;;;;;;;4.65;1.80;;;;;;;12.26;100.00;98857.66;4941063;28;20040;-85
2022/11/18 09:19:32;;;;;;;4.25;1.60;;;;;;;12.20;100.00;98858.41;4932738;29;20444;-85
2022/11/18 09:21:58;;;;;;;3.63;2.20;;;;;;;12.18;100.00;98864.81;4938087;29;20114;-84
2022/11/18 09:24:23;;;;;;;4.43;2.03;;;;;;;12.21;100.00;98864.44;4940859;29;20550;-85
2022/11/18 09:26:49;;;;;;;3.65;1.70;;;;;;;12.20;100.00;98868.06;4938408;29;20090;-85
2022/11/18 09:29:14;;;;;;;2.55;1.90;;;;;;;12.18;100.00;98863.03;4940069;29;20094;-84
2022/11/18 09:31:40;;;;;;;4.35;1.75;;;;;;;12.18;100.00;98868.25;4937364;29;20069;-85
2022/11/18 09:34:05;;;;;;;3.90;1.65;;;;;;;12.16;100.00;98865.03;4945184;28;20035;-85
2022/11/18 09:36:31;;;;;;;4.50;1.77;;;;;;;12.12;100.00;98860.38;4937983;28;20457;-85
2022/11/18 09:38:58;;;;;;;2.75;1.73;;;;;;;12.16;100.00;98859.81;4943702;29;20037;-85
2022/11/18 09:41:44;;;;;;;4.40;2.42;;;;;;;12.16;100.00;98866.81;4942419;28;20077;-84
2022/11/18 09:44:15;;;;;;;3.78;2.45;;;;;;;12.19;100.00;98871.66;4944870;29;20027;-84
2022/11/18 09:47:06;;;;;;;2.72;2.00;;;;;;;12.17;100.00;98874.47;4942021;29;20502;-84
2022/11/18 09:49:37;;;;;;;4.78;2.10;;;;;;;12.18;100.00;98875.28;4933075;29;20063;-84
2022/11/18 09:52:20;;;;;;;4.13;1.77;;;;;;;12.15;100.00;98879.06;4938064;29;20031;-85
2022/11/18 09:54:46;;;;;;;3.42;2.40;;;;;;;12.20;100.00;98876.69;4934070;29;20132;-84
2022/11/18 09:57:15;;;;;;;4.43;2.42;;;;;;;12.24;100.00;98880.53;4944570;29;20030;-84
2022/11/18 09:59:41;;;;;;;3.92;2.72;;;;;;;12.25;100.00;98878.72;4939097;29;20048;-84
2022/11/18 10:02:33;;;;;;;5.60;2.40;;;;;;;12.25;100.00;98883.94;4937399;29;20475;-84
2022/11/18 10:05:13;;;;;;;5.45;2.10;;;;;;;12.32;100.00;98889.97;4937080;29;20333;-84
2022/11/18 10:08:01;;;;;;;2.63;2.08;;;;;;;12.37;100.00;98905.06;4936081;29;20032;-85
2022/11/18 10:10:49;;;;;;;4.55;2.90;;;;;;;12.42;100.00;98897.47;4947890;29;20475;-85
2022/11/18 10:13:19;;;;;;;5.05;2.65;;;;;;;12.49;100.00;98903.53;4882181;29;20053;-84
2022/11/18 10:15:59;;;;;;;3.53;2.53;;;;;;;12.54;100.00;98899.34;4894420;29;20052;-84
2022/11/18 10:18:27;;;;;;;8.48;2.22;;;;;;;12.54;100.00;98899.34;4899001;29;20040;-85
2022/11/18 10:21:04;;;;;;;2.63;0.98;;;;;;;12.52;100.00;98905.75;4894084;29;20036;-85
2022/11/18 10:24:00;;;;;;;2.47;0.80;;;;;;;12.46;100.00;98901.31;4881749;29;20767;-85
2022/11/18 10:26:44;;;;;;;1.73;0.73;;;;;;;12.46;100.00;98896.09;4887204;29;20134;-85
2022/11/18 10:29:10;;;;;;;1.95;0.50;;;;;;;12.51;100.00;98901.53;4891355;29;20827;-84
2022/11/18 10:31:53;;;;;;;1.90;0.70;;;;;;;12.53;100.00;98895.13;4893042;29;20484;-84
2022/11/18 10:34:19;;;;;;;1.98;0.70;;;;;;;12.57;100.00;98900.75;4896259;29;20080;-84
2022/11/18 10:36:58;;;;;;;2.08;0.93;;;;;;;12.60;100.00;98905.59;4892911;29;20153;-85
2022/11/18 10:39:23;;;;;;;3.70;1.00;;;;;;;12.62;100.00;98904.41;4899438;29;20157;-84
2022/11/18 10:41:51;;;;;;;1.55;1.10;;;;;;;12.60;100.00;98908.22;4894959;29;20531;-85
2022/11/18 10:44:35;;;;;;;3.67;0.70;;;;;;;12.50;100.00;98919.00;4896330;29;20330;-84
2022/11/18 10:47:20;;;;;;;5.72;0.57;;;;;;;12.37;100.00;98926.78;4877968;29;20474;-84
2022/11/18 10:49:46;;;;;;;3.85;0.50;;;;;;;12.08;100.00;98927.81;4892717;29;20466;-85
2022/11/18 10:52:13;;;;;;;3.30;0.80;;;;;;;11.92;100.00;98939.34;4928416;28;20114;-85
2022/11/18 10:54:39;;;;;;;1.83;0.50;;;;;;;11.79;100.00;98928.84;4934095;28;20096;-86
2022/11/18 10:57:21;;;;;;;1.92;0.70;;;;;;;11.60;100.00;98919.81;4932176;29;20392;-86
2022/11/18 10:59:47;;;;;;;1.73;0.90;;;;;;;11.50;100.00;98913.31;4929095;29;20617;-85
2022/11/18 11:02:24;;;;;;;1.60;0.93;;;;;;;11.44;100.00;98912.25;4932985;29;20031;-85
2022/11/18 11:04:51;;;;;;;2.67;0.95;;;;;;;11.43;100.00;98912.44;4946758;28;20031;-85
2022/11/18 11:07:31;;;;;;;9.13;1.40;;;;;;;11.45;100.00;98911.25;4926127;29;20042;-85
2022/11/18 11:10:00;;;;;;;2.30;0.80;;;;;;;11.46;100.00;98922.50;4930731;29;20032;-84
2022/11/18 11:12:29;;;;;;;2.65;0.80;;;;;;;11.46;100.00;98925.13;4932008;29;20031;-84
2022/11/18 11:14:59;;;;;;;1.92;1.02;;;;;;;11.49;100.00;98925.53;4931188;29;20531;-85
2022/11/18 11:17:33;;;;;;;3.25;0.88;;;;;;;11.51;100.00;98931.38;4931907;29;20035;-85
2022/11/18 11:20:22;;;;;;;4.68;1.20;;;;;;;11.56;100.00;98925.59;4936187;28;20083;-85
2022/11/18 11:22:48;;;;;;;3.38;1.48;;;;;;;11.60;100.00;98932.88;4931282;29;20487;-85
2022/11/18 11:25:16;;;;;;;2.33;1.25;;;;;;;11.60;100.00;98934.66;4933264;29;20503;-85
2022/11/18 11:27:45;;;;;;;4.15;1.33;;;;;;;11.57;100.00;98933.25;4926491;28;20063;-85
2022/11/18 11:30:19;;;;;;;4.35;1.35;;;;;;;11.52;100.00;98930.38;4938655;29;20078;-85
2022/11/18 11:33:08;;;;;;;6.10;2.05;;;;;;;11.46;100.00;98925.91;4937529;29;20483;-85
2022/11/18 11:36:23;;;;;;;3.53;2.50;;;;;;;11.48;100.00;98936.97;4935164;28;20083;-85
2022/11/18 11:38:58;;;;;;;3.67;1.90;;;;;;;11.49;100.00;98940.38;4867115;29;20090;-85
2022/11/18 11:41:30;;;;;;;3.53;1.73;;;;;;;11.49;100.00;98946.41;4861110;29;20037;-85